createdAt,value
2022-12-12T00:01:41.617Z,27.53
2022-12-12T00:04:09.134Z,28.03
2022-12-12T00:06:36.657Z,24.80
2022-12-12T00:09:05.116Z,27.10
2022-12-12T00:11:32.641Z,26.73
2022-12-12T00:14:00.165Z,26.33
2022-12-12T00:16:28.511Z,26.17
2022-12-12T00:18:56.063Z,26.63
2022-12-12T00:21:23.597Z,26.80
2022-12-12T00:23:51.167Z,26.87
2022-12-12T00:26:18.685Z,28.93
2022-12-12T00:28:46.989Z,26.43
2022-12-12T00:31:14.606Z,30.60
2022-12-12T00:33:42.127Z,25.83
2022-12-12T00:36:09.653Z,24.57
2022-12-12T00:38:37.985Z,23.83
2022-12-12T00:41:05.519Z,28.27
2022-12-12T00:43:33.065Z,30.23
2022-12-12T00:46:02.503Z,26.13
2022-12-12T00:48:30.778Z,30.03
2022-12-12T00:50:58.273Z,28.50
2022-12-12T00:53:27.141Z,30.87
2022-12-12T00:55:57.597Z,30.17
2022-12-12T00:58:25.909Z,36.28
2022-12-12T01:00:53.476Z,32.20
2022-12-12T01:03:21.074Z,41.83
2022-12-12T01:05:48.558Z,31.10
2022-12-12T01:08:16.928Z,29.60
2022-12-12T01:10:44.403Z,28.93
2022-12-12T01:13:11.924Z,28.50
2022-12-12T01:15:40.687Z,31.43
2022-12-12T01:18:08.067Z,31.70
2022-12-12T01:20:36.380Z,31.00
2022-12-12T01:23:03.993Z,30.00
2022-12-12T01:25:31.518Z,31.37
2022-12-12T01:27:59.043Z,33.17
2022-12-12T01:30:27.416Z,26.00
2022-12-12T01:32:54.911Z,25.43
2022-12-12T01:35:22.436Z,32.65
2022-12-12T01:37:51.131Z,26.80
2022-12-12T01:40:18.727Z,28.07
2022-12-12T01:42:46.210Z,29.03
2022-12-12T01:45:50.668Z,29.03
2022-12-12T01:48:18.224Z,31.40
2022-12-12T01:50:46.505Z,27.97
2022-12-12T01:53:14.357Z,33.10
2022-12-12T01:55:42.660Z,27.30
2022-12-12T01:58:10.183Z,23.97
2022-12-12T02:00:38.568Z,25.57
2022-12-12T02:03:06.063Z,26.00
2022-12-12T02:05:42.052Z,26.87
2022-12-12T02:08:10.005Z,26.80
2022-12-12T02:10:37.515Z,29.37
2022-12-12T02:13:05.789Z,24.23
2022-12-12T02:15:46.972Z,25.60
2022-12-12T02:18:19.826Z,25.20
2022-12-12T02:20:53.304Z,30.80
2022-12-12T02:23:20.839Z,32.60
2022-12-12T02:26:25.434Z,30.27
2022-12-12T02:29:14.060Z,26.00
2022-12-12T02:31:41.664Z,25.90
2022-12-12T02:34:36.541Z,30.00
2022-12-12T02:37:13.557Z,25.83
2022-12-12T02:39:49.953Z,23.90
2022-12-12T02:42:28.221Z,18.23
2022-12-12T02:44:55.756Z,26.20
2022-12-12T02:47:29.237Z,27.40
2022-12-12T02:49:59.574Z,20.20
2022-12-12T02:52:27.093Z,23.20
2022-12-12T02:54:54.618Z,20.63
2022-12-12T02:57:22.181Z,21.53
2022-12-12T02:59:52.652Z,19.00
2022-12-12T03:02:47.283Z,21.63
2022-12-12T03:05:57.933Z,23.70
2022-12-12T03:08:37.331Z,18.00
2022-12-12T03:11:13.377Z,17.53
2022-12-12T03:13:46.977Z,15.00
2022-12-12T03:16:29.282Z,16.90
2022-12-12T03:19:09.042Z,19.43
2022-12-12T03:21:55.048Z,20.67
2022-12-12T03:24:28.234Z,21.77
2022-12-12T03:27:07.271Z,19.03
2022-12-12T03:29:40.645Z,22.70
2022-12-12T03:32:13.653Z,23.33
2022-12-12T03:34:43.815Z,20.47
2022-12-12T03:37:12.305Z,20.77
2022-12-12T03:39:42.548Z,20.83
2022-12-12T03:42:12.727Z,22.20
2022-12-12T03:44:46.804Z,19.23
2022-12-12T03:47:14.332Z,21.00
2022-12-12T03:49:58.366Z,20.40
2022-12-12T03:52:31.653Z,22.27
2022-12-12T03:54:59.175Z,19.83
2022-12-12T03:57:26.740Z,17.67
2022-12-12T03:59:59.955Z,21.33
2022-12-12T04:02:35.021Z,17.63
2022-12-12T04:05:09.547Z,17.03
2022-12-12T04:07:39.910Z,19.33
2022-12-12T04:10:25.797Z,17.77
2022-12-12T04:13:11.733Z,22.25
2022-12-12T04:15:57.190Z,25.02
2022-12-12T04:18:37.317Z,18.70
2022-12-12T04:21:28.196Z,19.50
2022-12-12T04:24:07.952Z,24.08
2022-12-12T04:26:41.160Z,20.67
2022-12-12T04:29:26.430Z,19.97
2022-12-12T04:32:15.255Z,20.47
2022-12-12T04:35:11.669Z,20.10
2022-12-12T04:37:41.478Z,18.20
2022-12-12T04:40:09.278Z,18.37
2022-12-12T04:42:37.218Z,19.17
2022-12-12T04:45:07.488Z,20.60
2022-12-12T04:47:35.053Z,21.10
2022-12-12T04:50:03.484Z,18.93
2022-12-12T04:52:31.020Z,20.57
2022-12-12T04:55:14.889Z,22.60
2022-12-12T04:57:42.010Z,26.17
2022-12-12T05:00:10.538Z,22.93
2022-12-12T05:02:53.029Z,21.47
2022-12-12T05:05:29.229Z,25.33
2022-12-12T05:07:56.836Z,20.67
2022-12-12T05:10:24.358Z,27.43
2022-12-12T05:12:51.886Z,23.67
2022-12-12T05:15:19.426Z,26.50
2022-12-12T05:17:52.742Z,22.97
2022-12-12T05:20:20.286Z,22.07
2022-12-12T05:22:47.811Z,23.47
2022-12-12T05:25:17.039Z,22.67
2022-12-12T05:27:44.565Z,24.63
2022-12-12T05:30:12.906Z,25.10
2022-12-12T05:32:40.460Z,21.93
2022-12-12T05:35:08.369Z,26.70
2022-12-12T05:37:36.652Z,21.50
2022-12-12T05:40:04.266Z,24.50
2022-12-12T05:42:31.804Z,22.50
2022-12-12T05:44:59.336Z,26.00
2022-12-12T05:47:26.921Z,22.43
2022-12-12T05:49:54.471Z,21.13
2022-12-12T05:52:22.003Z,21.30
2022-12-12T05:54:50.352Z,24.00
2022-12-12T05:57:17.878Z,23.10
2022-12-12T05:59:47.838Z,27.98
2022-12-12T06:02:15.458Z,23.40
2022-12-12T06:04:43.714Z,24.87
2022-12-12T06:07:11.250Z,22.93
2022-12-12T06:09:39.976Z,25.77
2022-12-12T06:12:07.510Z,24.50
2022-12-12T06:14:35.035Z,26.43
2022-12-12T06:17:02.599Z,24.63
2022-12-12T06:19:30.896Z,24.70
2022-12-12T06:21:58.422Z,21.97
2022-12-12T06:24:25.985Z,25.33
2022-12-12T06:26:53.518Z,21.07
2022-12-12T06:29:21.049Z,22.80
2022-12-12T06:31:48.633Z,22.30
2022-12-12T06:34:16.158Z,18.57
2022-12-12T06:36:43.684Z,22.27
2022-12-12T06:39:12.320Z,22.53
2022-12-12T06:41:39.847Z,21.50
2022-12-12T06:44:08.140Z,20.53
2022-12-12T06:46:35.772Z,15.93
2022-12-12T06:49:03.269Z,20.80
2022-12-12T06:51:30.812Z,19.95
2022-12-12T06:53:58.705Z,18.27
2022-12-12T06:56:26.241Z,15.57
2022-12-12T06:58:53.765Z,16.67
2022-12-12T07:01:21.366Z,14.03
2022-12-12T07:03:52.435Z,18.13
2022-12-12T07:06:19.968Z,12.20
2022-12-12T07:08:47.522Z,16.40
2022-12-12T07:11:15.053Z,13.37
2022-12-12T07:13:43.340Z,19.13
2022-12-12T07:16:11.560Z,19.23
2022-12-12T07:18:39.051Z,17.57
2022-12-12T07:21:07.364Z,19.67
2022-12-12T07:23:34.976Z,19.33
2022-12-12T07:26:05.533Z,18.27
2022-12-12T07:28:33.825Z,21.77
2022-12-12T07:31:01.500Z,17.60
2022-12-12T07:33:39.589Z,18.33
2022-12-12T07:35:59.442Z,13.77
2022-12-12T07:38:27.789Z,16.57
2022-12-12T07:40:55.300Z,17.60
2022-12-12T07:43:26.376Z,18.57
2022-12-12T07:45:50.389Z,16.17
2022-12-12T07:48:17.924Z,19.07
2022-12-12T07:50:45.449Z,18.67
2022-12-12T07:53:13.022Z,18.70
2022-12-12T07:55:40.586Z,18.13
2022-12-12T07:58:08.076Z,14.90
2022-12-12T08:00:36.202Z,15.90
2022-12-12T08:03:03.737Z,15.37
2022-12-12T08:05:32.039Z,17.47
2022-12-12T08:08:00.531Z,16.17
2022-12-12T08:10:28.772Z,16.13
2022-12-12T08:12:56.324Z,17.30
2022-12-12T08:15:23.874Z,16.60
2022-12-12T08:17:52.174Z,15.20
2022-12-12T08:20:19.698Z,17.93
2022-12-12T08:22:47.263Z,20.07
2022-12-12T08:25:15.131Z,17.30
2022-12-12T08:27:42.319Z,16.70
2022-12-12T08:30:10.030Z,16.13
2022-12-12T08:32:37.553Z,15.30
2022-12-12T08:35:05.087Z,17.87
2022-12-12T08:37:34.501Z,18.63
2022-12-12T08:40:02.038Z,17.87
2022-12-12T08:42:30.330Z,19.53
2022-12-12T08:44:57.903Z,16.93
2022-12-12T08:47:25.429Z,14.20
2022-12-12T08:49:53.731Z,15.13
2022-12-12T08:52:21.316Z,15.67
2022-12-12T08:54:48.835Z,16.80
2022-12-12T08:57:17.196Z,18.27
2022-12-12T08:59:43.981Z,16.50
2022-12-12T09:02:11.654Z,15.13
2022-12-12T09:04:39.797Z,22.47
2022-12-12T09:07:08.767Z,13.83
2022-12-12T09:09:34.890Z,16.07
2022-12-12T09:12:03.198Z,17.97
2022-12-12T09:14:30.744Z,16.17
2022-12-12T09:16:58.281Z,17.10
2022-12-12T09:19:25.805Z,16.20
2022-12-12T09:21:53.379Z,16.80
2022-12-12T09:24:20.924Z,19.77
2022-12-12T09:26:48.458Z,19.62
2022-12-12T09:29:16.139Z,18.57
2022-12-12T09:31:43.714Z,20.50
2022-12-12T09:34:11.204Z,18.30
2022-12-12T09:36:39.534Z,17.13
2022-12-12T09:39:07.072Z,17.37
2022-12-12T09:41:34.600Z,16.03
2022-12-12T09:44:08.921Z,18.03
2022-12-12T09:46:43.249Z,18.53
2022-12-12T09:49:13.905Z,16.17
2022-12-12T09:51:41.443Z,17.20
2022-12-12T09:54:08.966Z,19.50
2022-12-12T09:56:42.714Z,18.90
2022-12-12T09:59:15.939Z,18.80
2022-12-12T10:02:01.775Z,16.53
2022-12-12T10:04:41.879Z,21.02
2022-12-12T10:07:11.338Z,21.80
2022-12-12T10:09:47.737Z,17.93
2022-12-12T10:12:15.290Z,17.33
2022-12-12T10:14:51.518Z,22.17
2022-12-12T10:17:25.840Z,17.63
2022-12-12T10:19:59.396Z,19.40
2022-12-12T10:22:29.631Z,19.27
2022-12-12T10:24:58.070Z,24.00
2022-12-12T10:27:25.605Z,20.77
2022-12-12T10:29:53.129Z,19.93
2022-12-12T10:32:32.697Z,21.80
2022-12-12T10:35:03.215Z,19.50
2022-12-12T10:37:36.099Z,19.67
2022-12-12T10:40:16.870Z,18.37
2022-12-12T10:42:45.158Z,18.87
2022-12-12T10:45:27.734Z,20.33
2022-12-12T10:47:55.203Z,18.10
2022-12-12T10:50:32.268Z,29.50
2022-12-12T10:52:59.814Z,21.45
2022-12-12T10:55:48.900Z,20.17
2022-12-12T10:58:16.435Z,22.43
2022-12-12T11:00:44.004Z,19.00
2022-12-12T11:03:11.661Z,21.25
2022-12-12T11:05:39.089Z,20.20
2022-12-12T11:08:21.751Z,18.87
2022-12-12T11:11:07.201Z,20.00
2022-12-12T11:13:40.772Z,18.57
2022-12-12T11:16:13.046Z,21.67
2022-12-12T11:18:36.600Z,20.17
2022-12-12T11:21:10.007Z,19.60
2022-12-12T11:23:37.538Z,18.57
2022-12-12T11:26:14.507Z,21.93
2022-12-12T11:28:42.029Z,22.10
2022-12-12T11:31:09.565Z,20.57
2022-12-12T11:33:42.642Z,21.55
2022-12-12T11:36:10.167Z,18.37
2022-12-12T11:38:38.473Z,19.20
2022-12-12T11:41:06.069Z,16.43
2022-12-12T11:43:33.592Z,18.73
2022-12-12T11:46:16.986Z,19.77
2022-12-12T11:48:47.500Z,19.60
2022-12-12T11:51:15.030Z,16.07
2022-12-12T11:53:42.907Z,20.95
2022-12-12T11:56:19.137Z,21.40
2022-12-12T11:58:46.671Z,19.50
2022-12-12T12:01:26.741Z,17.17
2022-12-12T12:04:03.530Z,18.80
2022-12-12T12:06:45.996Z,17.53
2022-12-12T12:09:25.361Z,17.77
2022-12-12T12:12:08.403Z,16.93
2022-12-12T12:15:13.407Z,18.93
2022-12-12T12:17:55.610Z,16.63
2022-12-12T12:20:29.674Z,21.48
2022-12-12T12:23:23.322Z,20.33
2022-12-12T12:26:24.380Z,17.77
2022-12-12T12:29:22.979Z,19.27
2022-12-12T12:31:56.589Z,19.33
2022-12-12T12:34:33.123Z,18.90
2022-12-12T12:37:28.072Z,22.87
2022-12-12T12:40:10.699Z,20.03
2022-12-12T12:42:49.967Z,19.53
2022-12-12T12:45:21.570Z,18.77
2022-12-12T12:48:04.553Z,20.00
2022-12-12T12:50:34.432Z,21.80
2022-12-12T12:53:08.701Z,19.57
2022-12-12T12:55:36.236Z,20.97
2022-12-12T12:58:04.056Z,20.57
2022-12-12T13:00:31.581Z,20.77
2022-12-12T13:03:02.106Z,17.63
2022-12-12T13:05:41.398Z,21.00
2022-12-12T13:08:14.938Z,21.42
2022-12-12T13:10:45.025Z,19.57
2022-12-12T13:13:23.352Z,19.57
2022-12-12T13:16:05.840Z,17.93
2022-12-12T13:18:44.514Z,22.07
2022-12-12T13:21:25.488Z,18.70
2022-12-12T13:24:15.236Z,20.50
2022-12-12T13:26:45.458Z,17.97
2022-12-12T13:29:31.189Z,21.77
2022-12-12T13:32:35.984Z,20.30
2022-12-12T13:35:13.336Z,21.73
2022-12-12T13:37:42.955Z,16.53
2022-12-12T13:40:10.641Z,21.23
2022-12-12T13:42:50.650Z,18.50
2022-12-12T13:45:40.236Z,18.87
2022-12-12T13:48:11.200Z,18.87
2022-12-12T13:50:38.724Z,19.83
2022-12-12T13:53:07.019Z,18.23
2022-12-12T13:55:34.602Z,18.53
2022-12-12T13:58:02.131Z,21.53
2022-12-12T14:00:29.659Z,19.37
2022-12-12T14:03:02.012Z,20.70
2022-12-12T14:05:42.512Z,19.63
2022-12-12T14:08:11.798Z,21.17
2022-12-12T14:10:41.717Z,22.13
2022-12-12T14:13:16.016Z,22.60
2022-12-12T14:15:43.997Z,24.63
2022-12-12T14:18:11.479Z,24.73
2022-12-12T14:20:39.023Z,20.47
2022-12-12T14:23:07.662Z,22.77
2022-12-12T14:25:37.903Z,21.57
2022-12-12T14:28:14.320Z,17.83
2022-12-12T14:31:03.040Z,20.17
2022-12-12T14:33:36.042Z,19.13
2022-12-12T14:36:28.291Z,19.00
2022-12-12T14:39:33.252Z,22.57
2022-12-12T14:42:00.776Z,21.57
2022-12-12T14:44:37.894Z,21.17
2022-12-12T14:46:59.912Z,19.77
2022-12-12T14:49:27.438Z,20.37
2022-12-12T14:51:55.740Z,21.37
2022-12-12T14:54:23.323Z,23.23
2022-12-12T14:56:53.050Z,24.60
2022-12-12T14:59:21.916Z,20.80
2022-12-12T15:01:59.032Z,18.87
2022-12-12T15:04:26.570Z,19.37
2022-12-12T15:06:54.115Z,21.97
2022-12-12T15:09:37.147Z,18.53
2022-12-12T15:12:10.833Z,20.03
2022-12-12T15:14:38.357Z,18.80
2022-12-12T15:17:06.968Z,20.73
2022-12-12T15:19:37.456Z,30.70
2022-12-12T15:22:04.990Z,36.67
2022-12-12T15:24:32.574Z,22.17
2022-12-12T15:27:00.112Z,18.63
2022-12-12T15:29:27.664Z,20.13
2022-12-12T15:31:58.116Z,20.77
2022-12-12T15:34:31.486Z,18.40
2022-12-12T15:37:20.346Z,32.23
2022-12-12T15:39:56.565Z,20.97
2022-12-12T15:42:24.092Z,23.13
2022-12-12T15:44:51.704Z,25.67
2022-12-12T15:47:19.219Z,22.40
2022-12-12T15:49:47.514Z,23.67
2022-12-12T15:52:21.654Z,19.03
2022-12-12T15:54:49.198Z,19.10
2022-12-12T15:57:19.415Z,18.30
2022-12-12T15:59:47.300Z,18.20
2022-12-12T16:02:24.170Z,20.17
2022-12-12T16:04:54.568Z,21.10
2022-12-12T16:07:22.876Z,24.83
2022-12-12T16:10:02.031Z,22.20
2022-12-12T16:13:00.329Z,19.63
2022-12-12T16:15:30.849Z,22.23
2022-12-12T16:18:01.240Z,21.20
2022-12-12T16:20:30.586Z,19.63
2022-12-12T16:22:57.390Z,22.30
2022-12-12T16:25:27.780Z,21.53
2022-12-12T16:27:56.074Z,19.60
2022-12-12T16:30:23.656Z,19.60
2022-12-12T16:32:51.194Z,18.93
2022-12-12T16:35:18.726Z,20.80
2022-12-12T16:37:47.060Z,22.77
2022-12-12T16:40:14.844Z,24.30
2022-12-12T16:42:42.148Z,25.57
2022-12-12T16:45:10.985Z,22.37
2022-12-12T16:47:38.507Z,30.20
2022-12-12T16:50:06.042Z,24.03
2022-12-12T16:52:34.375Z,23.97
2022-12-12T16:55:01.939Z,27.83
2022-12-12T16:57:29.513Z,25.03
2022-12-12T16:59:57.459Z,25.10
2022-12-12T17:02:24.968Z,27.37
2022-12-12T17:04:53.259Z,26.03
2022-12-12T17:07:21.118Z,23.97
2022-12-12T17:09:48.652Z,23.30
2022-12-12T17:12:16.995Z,21.87
2022-12-12T17:14:44.570Z,22.73
2022-12-12T17:17:12.093Z,20.37
2022-12-12T17:19:39.618Z,20.77
2022-12-12T17:22:08.315Z,20.17
2022-12-12T17:24:35.849Z,20.33
2022-12-12T17:27:04.152Z,20.90
2022-12-12T17:29:31.736Z,17.20
2022-12-12T17:31:59.394Z,19.37
2022-12-12T17:34:26.796Z,20.67
2022-12-12T17:36:54.372Z,20.60
2022-12-12T17:39:22.675Z,26.00
2022-12-12T17:41:50.250Z,22.53
2022-12-12T17:44:18.539Z,22.00
2022-12-12T17:46:46.075Z,19.80
2022-12-12T17:49:13.599Z,18.73
2022-12-12T17:51:41.951Z,21.20
2022-12-12T17:54:09.476Z,23.13
2022-12-12T17:56:37.010Z,19.37
2022-12-12T17:59:04.595Z,21.87
2022-12-12T18:01:32.158Z,20.50
2022-12-12T18:03:59.769Z,19.30
2022-12-12T18:06:28.008Z,20.73
2022-12-12T18:08:55.541Z,20.43
2022-12-12T18:11:25.776Z,28.30
2022-12-12T18:13:53.362Z,26.90
2022-12-12T18:16:20.952Z,25.00
2022-12-12T18:18:48.437Z,27.27
2022-12-12T18:21:35.784Z,24.13
2022-12-12T18:23:43.570Z,26.80
2022-12-12T18:26:11.129Z,23.93
2022-12-12T18:28:38.713Z,29.20
2022-12-12T18:31:06.258Z,25.90
2022-12-12T18:33:33.803Z,31.35
2022-12-12T18:36:07.393Z,29.70
2022-12-12T18:38:34.917Z,25.37
2022-12-12T18:41:02.455Z,20.70
2022-12-12T18:43:30.026Z,21.60
2022-12-12T18:46:01.517Z,24.90
2022-12-12T18:48:28.850Z,23.87
2022-12-12T18:50:57.446Z,24.20
2022-12-12T18:53:24.980Z,21.33
2022-12-12T18:55:53.275Z,24.07
2022-12-12T18:58:21.163Z,24.00
2022-12-12T19:00:48.720Z,28.13
2022-12-12T19:03:17.002Z,28.90
2022-12-12T19:05:45.362Z,24.07
2022-12-12T19:08:13.008Z,23.43
2022-12-12T19:10:41.199Z,18.67
2022-12-12T19:13:08.787Z,23.53
2022-12-12T19:15:36.308Z,22.17
2022-12-12T19:18:03.865Z,21.57
2022-12-12T19:20:32.204Z,21.40
2022-12-12T19:22:59.750Z,28.47
2022-12-12T19:25:27.283Z,27.40
2022-12-12T19:27:55.144Z,28.47
2022-12-12T19:30:22.672Z,24.17
2022-12-12T19:32:51.010Z,29.70
2022-12-12T19:35:18.547Z,27.80
2022-12-12T19:37:46.080Z,28.87
2022-12-12T19:40:14.678Z,35.53
2022-12-12T19:42:42.548Z,34.53
2022-12-12T19:45:10.073Z,27.90
2022-12-12T19:47:38.414Z,28.23
2022-12-12T19:50:06.087Z,22.90
2022-12-12T19:52:33.622Z,19.60
2022-12-12T19:55:01.157Z,28.80
2022-12-12T19:57:28.750Z,23.57
2022-12-12T19:59:56.284Z,37.03
2022-12-12T20:02:23.844Z,31.30
2022-12-12T20:04:53.934Z,27.70
2022-12-12T20:07:22.227Z,24.50
2022-12-12T20:09:49.761Z,22.23
2022-12-12T20:12:18.107Z,19.97
2022-12-12T20:14:45.640Z,26.40
2022-12-12T20:17:13.192Z,22.83
2022-12-12T20:19:40.767Z,30.47
2022-12-12T20:22:08.302Z,38.73
2022-12-12T20:24:35.839Z,34.90
2022-12-12T20:27:04.189Z,36.77
2022-12-12T20:29:31.727Z,35.83
2022-12-12T20:31:59.269Z,39.70
2022-12-12T20:34:26.822Z,35.53
2022-12-12T20:36:54.367Z,31.50
2022-12-12T20:39:21.935Z,28.83
2022-12-12T20:41:50.261Z,29.27
2022-12-12T20:44:17.796Z,27.83
2022-12-12T20:46:45.313Z,25.13
2022-12-12T20:49:15.976Z,40.27
2022-12-12T20:51:59.171Z,36.53
2022-12-12T20:54:11.067Z,32.63
2022-12-12T20:56:44.501Z,37.87
2022-12-12T20:59:06.204Z,34.77
2022-12-12T21:01:33.760Z,40.33
2022-12-12T21:04:01.318Z,34.20
2022-12-12T21:06:31.286Z,32.70
2022-12-12T21:09:01.830Z,57.97
2022-12-12T21:11:29.247Z,40.87
2022-12-12T21:13:56.773Z,36.60
2022-12-12T21:16:24.317Z,34.30
2022-12-12T21:18:52.205Z,29.50
2022-12-12T21:21:19.730Z,39.27
2022-12-12T21:23:48.035Z,42.13
2022-12-12T21:26:19.693Z,62.60
2022-12-12T21:28:43.154Z,47.37
2022-12-12T21:31:10.720Z,48.70
2022-12-12T21:33:39.033Z,44.10
2022-12-12T21:36:06.602Z,44.10
2022-12-12T21:38:34.148Z,56.17
2022-12-12T21:41:04.686Z,41.50
2022-12-12T21:43:32.221Z,43.53
2022-12-12T21:45:59.786Z,45.43
2022-12-12T21:48:28.082Z,39.37
2022-12-12T21:50:55.617Z,34.50
2022-12-12T21:53:35.104Z,37.83
2022-12-12T21:56:09.108Z,32.17
2022-12-12T21:58:37.401Z,31.50
2022-12-12T22:01:07.731Z,30.50
2022-12-12T22:03:35.268Z,31.60
2022-12-12T22:06:12.825Z,33.07
2022-12-12T22:08:40.359Z,30.80
2022-12-12T22:11:07.894Z,32.73
2022-12-12T22:13:39.824Z,24.47
2022-12-12T22:16:03.050Z,19.50
2022-12-12T22:18:30.557Z,21.00
2022-12-12T22:21:07.772Z,23.73
2022-12-12T22:23:35.315Z,21.67
2022-12-12T22:26:18.329Z,21.23
2022-12-12T22:28:46.651Z,20.07
2022-12-12T22:31:14.243Z,22.57
2022-12-12T22:33:42.065Z,20.50
2022-12-12T22:36:09.589Z,18.93
2022-12-12T22:38:38.488Z,21.17
2022-12-12T22:41:05.466Z,21.23
2022-12-12T22:43:33.003Z,23.37
2022-12-12T22:46:06.359Z,21.47
2022-12-12T22:48:34.609Z,20.10
2022-12-12T22:51:13.703Z,22.43
2022-12-12T22:53:44.349Z,19.90
2022-12-12T22:56:08.804Z,22.50
2022-12-12T22:58:37.132Z,22.77
2022-12-12T23:01:10.813Z,19.60
2022-12-12T23:03:38.340Z,18.10
2022-12-12T23:06:06.637Z,22.87
2022-12-12T23:08:34.272Z,23.43
2022-12-12T23:11:07.447Z,26.90
2022-12-12T23:13:35.790Z,21.17
2022-12-12T23:16:06.147Z,20.83
2022-12-12T23:18:33.630Z,25.20
2022-12-12T23:21:01.923Z,26.33
2022-12-12T23:23:29.497Z,25.50
2022-12-12T23:25:57.022Z,21.13
2022-12-12T23:28:25.324Z,22.87
2022-12-12T23:30:52.888Z,21.73
2022-12-12T23:33:20.422Z,21.10
2022-12-12T23:35:48.725Z,17.23
2022-12-12T23:38:16.585Z,20.30
2022-12-12T23:40:44.141Z,27.33
2022-12-12T23:43:11.677Z,28.50
2022-12-12T23:45:40.409Z,26.03
2022-12-12T23:48:07.905Z,25.73
2022-12-12T23:50:35.444Z,21.60
2022-12-12T23:53:06.259Z,20.53
2022-12-12T23:55:31.337Z,17.93
2022-12-12T23:57:58.872Z,21.77
